createdAt,value
2018-04-14T00:01:40.881Z,90.23
2018-04-14T00:04:07.249Z,90.12
2018-04-14T00:06:33.577Z,88.72
2018-04-14T00:08:59.911Z,89.54
2018-04-14T00:11:26.354Z,88.47
2018-04-14T00:13:52.703Z,88.98
2018-04-14T00:16:19.024Z,90.08
2018-04-14T00:18:45.477Z,89.45
2018-04-14T00:21:11.884Z,89.11
2018-04-14T00:23:38.246Z,89.50
2018-04-14T00:26:04.667Z,89.75
2018-04-14T00:28:31.080Z,90.21
2018-04-14T00:30:57.442Z,89.73
2018-04-14T00:33:23.905Z,90.20
2018-04-14T00:35:50.237Z,90.69
2018-04-14T00:38:16.668Z,91.36
2018-04-14T00:40:43.088Z,91.12
2018-04-14T00:43:09.558Z,91.44
2018-04-14T00:45:35.941Z,89.67
2018-04-14T00:48:02.378Z,89.58
2018-04-14T00:50:28.705Z,88.87
2018-04-14T00:52:55.174Z,89.78
2018-04-14T00:55:21.668Z,90.83
2018-04-14T00:57:48.215Z,89.90
2018-04-14T01:00:14.563Z,91.43
2018-04-14T01:02:40.912Z,92.20
2018-04-14T01:05:07.293Z,90.32
2018-04-14T01:07:33.719Z,91.63
2018-04-14T01:10:00.027Z,92.00
2018-04-14T01:12:26.347Z,92.22
2018-04-14T01:14:52.725Z,92.01
2018-04-14T01:17:19.116Z,91.99
2018-04-14T01:19:45.481Z,92.96
2018-04-14T01:22:11.866Z,92.82
2018-04-14T01:24:38.365Z,92.27
2018-04-14T01:27:04.712Z,93.04
2018-04-14T01:29:31.113Z,91.81
2018-04-14T01:31:57.488Z,92.93
2018-04-14T01:34:23.797Z,92.33
2018-04-14T01:36:50.127Z,92.32
2018-04-14T01:39:16.632Z,93.29
2018-04-14T01:41:43.010Z,93.38
2018-04-14T01:44:09.324Z,92.40
2018-04-14T01:46:35.714Z,92.37
2018-04-14T01:49:02.112Z,92.50
2018-04-14T01:51:28.461Z,92.39
2018-04-14T01:53:54.827Z,93.21
2018-04-14T01:56:21.147Z,92.87
2018-04-14T01:58:47.565Z,92.64
2018-04-14T02:01:13.949Z,92.54
2018-04-14T02:03:40.321Z,92.83
2018-04-14T02:06:06.624Z,92.32
2018-04-14T02:08:33.096Z,92.15
2018-04-14T02:10:59.466Z,93.98
2018-04-14T02:13:25.863Z,93.10
2018-04-14T02:15:52.221Z,93.00
2018-04-14T02:18:18.542Z,92.17
2018-04-14T02:20:44.928Z,92.15
2018-04-14T02:23:11.326Z,93.75
2018-04-14T02:25:37.672Z,92.84
2018-04-14T02:28:04.083Z,94.06
2018-04-14T02:30:30.477Z,93.80
2018-04-14T02:32:56.825Z,94.00
2018-04-14T02:35:23.148Z,92.58
2018-04-14T02:37:49.523Z,93.98
2018-04-14T02:40:15.840Z,93.87
2018-04-14T02:42:42.175Z,93.69
2018-04-14T02:45:08.553Z,93.81
2018-04-14T02:47:34.976Z,94.72
2018-04-14T02:50:01.277Z,93.27
2018-04-14T02:52:27.693Z,93.47
2018-04-14T02:54:54.082Z,92.77
2018-04-14T02:57:20.412Z,93.46
2018-04-14T02:59:46.894Z,93.07
2018-04-14T03:02:13.263Z,93.42
2018-04-14T03:04:39.653Z,94.35
2018-04-14T03:07:06.049Z,94.87
2018-04-14T03:09:32.503Z,94.25
2018-04-14T03:11:58.859Z,94.20
2018-04-14T03:14:25.300Z,94.42
2018-04-14T03:16:51.609Z,93.70
2018-04-14T03:19:17.969Z,94.62
2018-04-14T03:21:44.431Z,95.11
2018-04-14T03:24:10.763Z,95.65
2018-04-14T03:26:37.150Z,95.92
2018-04-14T03:29:03.561Z,95.51
2018-04-14T03:31:29.863Z,94.74
2018-04-14T03:33:56.197Z,95.04
2018-04-14T03:36:22.563Z,94.85
2018-04-14T03:38:48.982Z,94.97
2018-04-14T03:41:15.339Z,95.04
2018-04-14T03:43:41.860Z,95.07
2018-04-14T03:46:08.280Z,94.64
2018-04-14T03:48:34.645Z,94.94
2018-04-14T03:51:01.006Z,95.06
2018-04-14T03:53:27.318Z,94.90
2018-04-14T03:55:53.669Z,94.26
2018-04-14T03:58:20.148Z,93.27
2018-04-14T04:00:46.498Z,94.67
2018-04-14T04:03:12.965Z,94.49
2018-04-14T04:05:39.375Z,93.68
2018-04-14T04:08:05.854Z,93.41
2018-04-14T04:10:32.251Z,93.97
2018-04-14T04:12:58.881Z,93.91
2018-04-14T04:15:25.288Z,92.62
2018-04-14T04:17:51.845Z,91.69
2018-04-14T04:20:56.162Z,89.54
2018-04-14T04:23:34.983Z,86.99
2018-04-14T04:26:01.591Z,85.50
2018-04-14T04:28:28.466Z,83.35
2018-04-14T04:30:55.037Z,82.11
2018-04-14T04:33:21.529Z,80.09
2018-04-14T04:35:48.017Z,78.92
2018-04-14T04:38:14.521Z,78.92
2018-04-14T04:40:41.385Z,77.27
2018-04-14T04:43:07.905Z,74.99
2018-04-14T04:45:34.354Z,72.29
2018-04-14T04:48:01.112Z,71.01
2018-04-14T04:50:28.011Z,69.79
2018-04-14T04:52:54.953Z,68.50
2018-04-14T04:55:22.469Z,67.74
2018-04-14T04:57:49.311Z,67.07
2018-04-14T05:00:15.704Z,68.30
2018-04-14T05:02:42.229Z,67.42
2018-04-14T05:05:08.587Z,64.09
2018-04-14T05:07:35.014Z,64.45
2018-04-14T05:10:01.841Z,66.16
2018-04-14T05:12:28.173Z,65.20
2018-04-14T05:14:54.562Z,66.14
2018-04-14T05:17:21.067Z,64.60
2018-04-14T05:19:47.539Z,64.69
2018-04-14T05:22:14.150Z,65.67
2018-04-14T05:24:40.574Z,64.17
2018-04-14T05:27:07.058Z,62.58
2018-04-14T05:29:33.989Z,63.70
2018-04-14T05:32:00.580Z,61.54
2018-04-14T05:34:27.071Z,61.87
2018-04-14T05:36:53.427Z,62.70
2018-04-14T05:39:20.005Z,62.94
2018-04-14T05:41:46.441Z,59.63
2018-04-14T05:44:12.986Z,61.77
2018-04-14T05:46:39.522Z,60.55
2018-04-14T05:49:05.955Z,61.00
2018-04-14T05:51:32.811Z,65.05
2018-04-14T05:53:59.279Z,60.17
2018-04-14T05:56:25.925Z,61.92
2018-04-14T05:58:52.728Z,61.84
2018-04-14T06:01:19.203Z,62.47
2018-04-14T06:03:45.556Z,63.10
2018-04-14T06:06:11.957Z,63.17
2018-04-14T06:08:38.379Z,64.81
2018-04-14T06:11:04.739Z,61.25
2018-04-14T06:13:31.285Z,59.78
2018-04-14T06:15:57.733Z,61.19
2018-04-14T06:18:24.699Z,63.89
2018-04-14T06:20:51.477Z,62.84
2018-04-14T06:23:18.017Z,60.02
2018-04-14T06:25:44.483Z,61.45
2018-04-14T06:28:11.157Z,63.54
2018-04-14T06:30:37.553Z,61.41
2018-04-14T06:33:03.863Z,64.25
2018-04-14T06:35:30.289Z,63.53
2018-04-14T06:37:56.702Z,63.97
2018-04-14T06:40:23.271Z,63.68
2018-04-14T06:42:49.658Z,64.12
2018-04-14T06:45:16.035Z,63.69
2018-04-14T06:47:42.676Z,63.83
2018-04-14T06:50:09.320Z,67.15
2018-04-14T06:52:35.690Z,67.59
2018-04-14T06:55:02.192Z,65.27
2018-04-14T06:57:28.561Z,64.00
2018-04-14T06:59:55.153Z,64.82
2018-04-14T07:02:21.768Z,65.26
2018-04-14T07:04:48.221Z,67.59
2018-04-14T07:07:14.705Z,64.71
2018-04-14T07:09:41.717Z,68.10
2018-04-14T07:12:08.113Z,66.60
2018-04-14T07:14:34.559Z,65.97
2018-04-14T07:17:01.002Z,67.51
2018-04-14T07:19:27.451Z,63.89
2018-04-14T07:21:53.893Z,66.25
2018-04-14T07:24:20.315Z,59.41
2018-04-14T07:26:46.673Z,64.97
2018-04-14T07:29:14.139Z,62.80
2018-04-14T07:31:40.554Z,64.38
2018-04-14T07:34:06.885Z,58.23
2018-04-14T07:36:33.607Z,58.90
2018-04-14T07:39:00.159Z,57.85
2018-04-14T07:41:26.568Z,57.45
2018-04-14T07:43:53.044Z,58.76
2018-04-14T07:46:19.527Z,58.95
2018-04-14T07:48:45.912Z,56.38
2018-04-14T07:51:12.644Z,56.01
2018-04-14T07:53:38.993Z,56.77
2018-04-14T07:56:05.329Z,57.19
2018-04-14T07:58:32.920Z,60.15
2018-04-14T08:00:59.880Z,55.55
2018-04-14T08:03:26.293Z,54.46
2018-04-14T08:05:52.685Z,55.31
2018-04-14T08:08:19.056Z,54.03
2018-04-14T08:10:45.520Z,57.99
2018-04-14T08:13:11.912Z,54.16
2018-04-14T08:15:38.282Z,52.95
2018-04-14T08:18:04.624Z,56.18
2018-04-14T08:20:31.134Z,51.57
2018-04-14T08:22:57.525Z,54.46
2018-04-14T08:25:23.921Z,55.73
2018-04-14T08:27:51.445Z,56.19
2018-04-14T08:30:18.263Z,52.91
2018-04-14T08:32:44.661Z,49.67
2018-04-14T08:35:11.222Z,53.30
2018-04-14T08:37:37.719Z,50.95
2018-04-14T08:40:04.465Z,49.67
2018-04-14T08:42:30.970Z,48.30
2018-04-14T08:44:57.578Z,49.34
2018-04-14T08:47:24.096Z,48.36
2018-04-14T08:49:50.603Z,53.24
2018-04-14T08:52:17.104Z,47.20
2018-04-14T08:54:43.715Z,48.61
2018-04-14T08:57:10.446Z,48.95
2018-04-14T08:59:36.999Z,44.29
2018-04-14T09:02:03.581Z,49.78
2018-04-14T09:04:29.986Z,46.53
2018-04-14T09:06:56.934Z,47.91
2018-04-14T09:09:23.594Z,45.81
2018-04-14T09:11:49.998Z,49.88
2018-04-14T09:14:16.400Z,46.66
2018-04-14T09:16:42.930Z,44.04
2018-04-14T09:19:09.546Z,46.39
2018-04-14T09:21:35.913Z,43.40
2018-04-14T09:24:02.372Z,42.11
2018-04-14T09:26:28.997Z,45.84
2018-04-14T09:28:55.593Z,43.49
2018-04-14T09:31:22.922Z,45.99
2018-04-14T09:33:49.415Z,43.69
2018-04-14T09:36:15.806Z,45.72
2018-04-14T09:38:42.185Z,42.19
2018-04-14T09:41:08.657Z,45.56
2018-04-14T09:43:35.002Z,43.87
2018-04-14T09:46:01.404Z,42.94
2018-04-14T09:48:28.614Z,44.57
2018-04-14T09:50:55.046Z,41.25
2018-04-14T09:53:21.441Z,43.40
2018-04-14T09:55:47.927Z,43.93
2018-04-14T09:58:14.284Z,41.16
2018-04-14T10:00:47.041Z,40.93
2018-04-14T10:03:19.481Z,41.93
2018-04-14T10:05:45.944Z,38.45
2018-04-14T10:08:12.549Z,40.57
2018-04-14T10:10:39.034Z,40.15
2018-04-14T10:13:05.477Z,38.52
2018-04-14T10:15:31.912Z,37.91
2018-04-14T10:17:58.264Z,35.33
2018-04-14T10:20:24.789Z,35.25
2018-04-14T10:22:51.255Z,37.22
2018-04-14T10:25:17.782Z,39.98
2018-04-14T10:27:44.116Z,35.30
2018-04-14T10:30:10.654Z,36.29
2018-04-14T10:32:37.111Z,37.87
2018-04-14T10:35:03.477Z,35.15
2018-04-14T10:37:29.880Z,38.28
2018-04-14T10:39:57.249Z,41.63
2018-04-14T10:42:23.747Z,37.18
2018-04-14T10:44:50.218Z,38.88
2018-04-14T10:47:16.611Z,37.68
2018-04-14T10:49:43.038Z,34.78
2018-04-14T10:52:09.397Z,35.93
2018-04-14T10:54:36.098Z,38.56
2018-04-14T10:57:02.634Z,38.40
2018-04-14T10:59:29.070Z,33.82
2018-04-14T11:01:55.417Z,34.34
2018-04-14T11:04:21.822Z,35.27
2018-04-14T11:06:48.257Z,35.64
2018-04-14T11:09:15.093Z,34.19
2018-04-14T11:11:41.555Z,33.03
2018-04-14T11:14:07.982Z,35.12
2018-04-14T11:16:34.409Z,37.88
2018-04-14T11:19:00.801Z,38.19
2018-04-14T11:21:27.742Z,36.86
2018-04-14T11:23:54.183Z,33.48
2018-04-14T11:26:20.679Z,33.86
2018-04-14T11:28:47.213Z,33.68
2018-04-14T11:31:13.721Z,35.10
2018-04-14T11:33:40.241Z,34.38
2018-04-14T11:36:06.855Z,38.46
2018-04-14T11:38:33.187Z,35.75
2018-04-14T11:40:59.738Z,35.33
2018-04-14T11:43:26.270Z,35.64
2018-04-14T11:45:52.675Z,32.95
2018-04-14T11:48:19.549Z,30.65
2018-04-14T11:50:46.038Z,32.13
2018-04-14T11:53:12.495Z,38.41
2018-04-14T11:55:40.163Z,29.97
2018-04-14T11:58:06.804Z,29.35
2018-04-14T12:00:33.249Z,31.43
2018-04-14T12:02:59.765Z,31.48
2018-04-14T12:05:27.487Z,28.55
2018-04-14T12:07:54.048Z,29.73
2018-04-14T12:10:20.671Z,32.14
2018-04-14T12:12:47.220Z,30.03
2018-04-14T12:15:13.678Z,33.34
2018-04-14T12:17:40.180Z,33.84
2018-04-14T12:20:07.013Z,34.72
2018-04-14T12:22:33.464Z,34.06
2018-04-14T12:25:00.137Z,32.12
2018-04-14T12:27:26.671Z,30.38
2018-04-14T12:29:53.155Z,32.42
2018-04-14T12:32:19.819Z,35.00
2018-04-14T12:34:46.198Z,37.27
2018-04-14T12:37:12.806Z,31.85
2018-04-14T12:39:39.356Z,27.35
2018-04-14T12:42:06.246Z,30.88
2018-04-14T12:44:32.679Z,34.47
2018-04-14T12:46:59.402Z,31.23
2018-04-14T12:49:26.327Z,29.38
2018-04-14T12:51:53.015Z,29.23
2018-04-14T12:54:19.475Z,32.16
2018-04-14T12:56:46.472Z,36.06
2018-04-14T12:59:12.931Z,35.54
2018-04-14T13:01:40.239Z,31.64
2018-04-14T13:04:06.911Z,31.31
2018-04-14T13:06:33.325Z,31.13
2018-04-14T13:08:59.861Z,30.11
2018-04-14T13:11:27.447Z,31.92
2018-04-14T13:13:54.023Z,32.76
2018-04-14T13:16:20.550Z,33.31
2018-04-14T13:18:47.080Z,33.08
2018-04-14T13:21:13.890Z,32.96
2018-04-14T13:23:40.386Z,32.49
2018-04-14T13:26:07.693Z,33.86
2018-04-14T13:28:34.651Z,35.24
2018-04-14T13:31:01.203Z,34.40
2018-04-14T13:33:27.718Z,32.67
2018-04-14T13:35:54.267Z,32.62
2018-04-14T13:38:20.749Z,34.91
2018-04-14T13:40:47.252Z,34.71
2018-04-14T13:43:13.848Z,32.22
2018-04-14T13:45:40.494Z,33.25
2018-04-14T13:48:06.866Z,31.42
2018-04-14T13:50:33.237Z,33.38
2018-04-14T13:52:59.652Z,34.26
2018-04-14T13:55:26.102Z,35.68
2018-04-14T13:57:52.644Z,35.78
2018-04-14T14:00:19.160Z,36.06
2018-04-14T14:02:45.582Z,35.60
2018-04-14T14:05:11.918Z,39.22
2018-04-14T14:07:38.371Z,39.92
2018-04-14T14:10:05.178Z,40.54
2018-04-14T14:12:31.582Z,43.16
2018-04-14T14:14:58.026Z,41.45
2018-04-14T14:17:25.041Z,34.65
2018-04-14T14:19:51.444Z,33.49
2018-04-14T14:22:17.826Z,32.52
2018-04-14T14:24:44.259Z,31.94
2018-04-14T14:27:10.795Z,36.38
2018-04-14T14:29:37.318Z,32.14
2018-04-14T14:32:03.798Z,31.13
2018-04-14T14:34:30.215Z,32.64
2018-04-14T14:36:56.647Z,33.25
2018-04-14T14:39:23.077Z,31.89
2018-04-14T14:41:49.479Z,30.35
2018-04-14T14:44:16.149Z,31.84
2018-04-14T14:46:42.642Z,31.66
2018-04-14T14:49:09.069Z,35.26
2018-04-14T14:51:35.855Z,31.62
2018-04-14T14:54:02.279Z,31.48
2018-04-14T14:56:28.785Z,31.07
2018-04-14T14:58:55.334Z,35.39
2018-04-14T15:01:22.479Z,36.67
2018-04-14T15:03:49.026Z,33.42
2018-04-14T15:06:15.599Z,32.86
2018-04-14T15:08:42.201Z,35.26
2018-04-14T15:11:08.677Z,35.78
2018-04-14T15:13:35.331Z,35.25
2018-04-14T15:16:01.815Z,37.38
2018-04-14T15:18:28.539Z,34.05
2018-04-14T15:20:55.072Z,36.09
2018-04-14T15:23:21.509Z,36.66
2018-04-14T15:25:47.921Z,38.31
2018-04-14T15:28:14.585Z,39.32
2018-04-14T15:30:41.197Z,38.97
2018-04-14T15:33:07.675Z,37.29
2018-04-14T15:35:34.264Z,35.95
2018-04-14T15:38:00.948Z,38.91
2018-04-14T15:40:27.450Z,39.74
2018-04-14T15:42:53.904Z,40.99
2018-04-14T15:45:20.498Z,41.68
2018-04-14T15:47:46.989Z,40.51
2018-04-14T15:50:14.368Z,42.78
2018-04-14T15:52:40.792Z,45.98
2018-04-14T15:55:07.177Z,43.38
2018-04-14T15:57:33.772Z,44.07
2018-04-14T16:00:00.281Z,44.98
2018-04-14T16:02:27.178Z,44.93
2018-04-14T16:04:53.813Z,45.25
2018-04-14T16:07:20.358Z,46.99
2018-04-14T16:09:46.859Z,47.37
2018-04-14T16:12:13.622Z,46.75
2018-04-14T16:14:40.031Z,46.45
2018-04-14T16:17:06.994Z,46.83
2018-04-14T16:19:33.754Z,47.40
2018-04-14T16:22:00.523Z,48.29
2018-04-14T16:24:28.135Z,48.32
2018-04-14T16:26:54.733Z,48.71
2018-04-14T16:29:21.606Z,49.15
2018-04-14T16:31:48.138Z,48.88
2018-04-14T16:34:14.571Z,49.28
2018-04-14T16:36:40.951Z,49.29
2018-04-14T16:39:07.552Z,49.63
2018-04-14T16:41:36.019Z,51.33
2018-04-14T16:44:02.668Z,53.37
2018-04-14T16:46:29.290Z,52.29
2018-04-14T16:48:56.298Z,51.92
2018-04-14T16:51:23.105Z,52.29
2018-04-14T16:53:49.692Z,52.10
2018-04-14T16:56:17.418Z,52.69
2018-04-14T16:58:44.099Z,53.39
2018-04-14T17:01:10.852Z,53.25
2018-04-14T17:03:38.242Z,53.03
2018-04-14T17:06:04.851Z,53.13
2018-04-14T17:08:31.361Z,52.73
2018-04-14T17:10:58.345Z,52.05
2018-04-14T17:13:25.107Z,51.56
2018-04-14T17:15:51.643Z,53.28
2018-04-14T17:18:18.541Z,51.59
2018-04-14T17:20:45.593Z,53.71
2018-04-14T17:23:12.024Z,52.75
2018-04-14T17:25:38.786Z,53.63
2018-04-14T17:28:05.269Z,54.11
2018-04-14T17:30:31.856Z,54.20
2018-04-14T17:32:58.640Z,55.81
2018-04-14T17:35:25.369Z,55.05
2018-04-14T17:37:52.050Z,55.37
2018-04-14T17:40:18.721Z,56.01
2018-04-14T17:42:46.092Z,56.27
2018-04-14T17:45:13.277Z,55.81
2018-04-14T17:47:40.701Z,56.96
2018-04-14T17:50:08.607Z,56.81
2018-04-14T17:52:35.321Z,56.71
2018-04-14T17:55:02.205Z,57.24
2018-04-14T17:57:28.763Z,56.96
2018-04-14T17:59:55.628Z,55.91
2018-04-14T18:02:22.302Z,55.73
2018-04-14T18:04:49.410Z,55.44
2018-04-14T18:07:16.602Z,54.63
2018-04-14T18:09:43.802Z,54.85
2018-04-14T18:12:11.461Z,55.37
2018-04-14T18:14:39.947Z,54.53
2018-04-14T18:17:06.913Z,54.03
2018-04-14T18:19:34.594Z,54.74
2018-04-14T18:22:01.619Z,54.29
2018-04-14T18:24:29.060Z,54.17
2018-04-14T18:26:55.822Z,53.77
2018-04-14T18:29:22.908Z,54.90
2018-04-14T18:31:50.017Z,54.39
2018-04-14T18:34:16.942Z,54.80
2018-04-14T18:36:43.876Z,53.98
2018-04-14T18:39:10.733Z,54.26
2018-04-14T18:41:37.779Z,54.65
2018-04-14T18:44:04.714Z,53.92
2018-04-14T18:46:32.481Z,53.67
2018-04-14T18:48:59.495Z,53.82
2018-04-14T18:51:26.512Z,54.15
2018-04-14T18:53:52.948Z,53.39
2018-04-14T18:56:19.894Z,53.72
2018-04-14T18:58:46.860Z,53.95
2018-04-14T19:01:16.174Z,53.02
2018-04-14T19:03:43.993Z,53.15
2018-04-14T19:06:12.012Z,52.42
2018-04-14T19:08:39.838Z,52.51
2018-04-14T19:11:06.822Z,52.71
2018-04-14T19:13:33.634Z,53.32
2018-04-14T19:16:01.730Z,53.53
2018-04-14T19:18:28.551Z,55.83
2018-04-14T19:20:55.518Z,54.00
2018-04-14T19:23:22.201Z,54.72
2018-04-14T19:25:48.804Z,55.77
2018-04-14T19:28:17.599Z,56.21
2018-04-14T19:30:44.664Z,55.54
2018-04-14T19:33:11.343Z,56.68
2018-04-14T19:35:38.141Z,56.18
2018-04-14T19:38:05.310Z,57.12
2018-04-14T19:40:32.243Z,57.49
2018-04-14T19:43:01.776Z,59.01
2018-04-14T19:45:30.232Z,60.62
2018-04-14T19:47:57.976Z,60.60
2018-04-14T19:50:25.873Z,61.33
2018-04-14T19:52:54.646Z,61.30
2018-04-14T19:55:23.636Z,62.82
2018-04-14T19:57:51.829Z,63.69
2018-04-14T20:00:22.711Z,62.53
2018-04-14T20:02:51.979Z,63.36
2018-04-14T20:05:19.427Z,63.83
2018-04-14T20:07:46.524Z,64.47
2018-04-14T20:10:13.172Z,64.87
2018-04-14T20:12:40.535Z,64.65
2018-04-14T20:15:07.136Z,65.23
2018-04-14T20:17:34.286Z,67.94
2018-04-14T20:20:01.081Z,67.17
2018-04-14T20:22:27.662Z,67.26
2018-04-14T20:24:54.253Z,67.51
2018-04-14T20:27:20.656Z,67.53
2018-04-14T20:29:47.136Z,68.62
2018-04-14T20:32:14.611Z,68.72
2018-04-14T20:34:41.247Z,69.29
2018-04-14T20:37:07.830Z,71.71
2018-04-14T20:39:34.451Z,71.12
2018-04-14T20:42:00.972Z,73.46
2018-04-14T20:44:28.273Z,74.17
2018-04-14T20:46:56.043Z,74.66
2018-04-14T20:49:22.747Z,73.99
2018-04-14T20:51:49.431Z,74.36
2018-04-14T20:54:16.137Z,74.68
2018-04-14T20:56:42.627Z,74.57
2018-04-14T20:59:09.253Z,75.33
2018-04-14T21:01:35.903Z,75.50
2018-04-14T21:04:02.600Z,75.83
2018-04-14T21:06:29.127Z,76.17
2018-04-14T21:08:55.462Z,76.26
2018-04-14T21:11:21.929Z,76.94
2018-04-14T21:13:48.407Z,77.28
2018-04-14T21:16:14.857Z,76.38
2018-04-14T21:18:41.478Z,76.96
2018-04-14T21:21:08.028Z,76.55
2018-04-14T21:23:34.421Z,76.62
2018-04-14T21:26:00.983Z,77.92
2018-04-14T21:28:27.790Z,78.92
2018-04-14T21:30:54.460Z,78.58
2018-04-14T21:33:20.970Z,78.33
2018-04-14T21:35:47.785Z,78.25
2018-04-14T21:38:14.264Z,78.76
2018-04-14T21:40:40.760Z,78.66
2018-04-14T21:43:07.262Z,78.93
2018-04-14T21:45:33.748Z,78.98
2018-04-14T21:48:00.198Z,79.87
2018-04-14T21:50:26.935Z,80.47
2018-04-14T21:52:54.543Z,80.30
2018-04-14T21:55:20.923Z,80.65
2018-04-14T21:57:47.379Z,80.57
2018-04-14T22:00:14.006Z,80.04
2018-04-14T22:02:40.639Z,81.12
2018-04-14T22:05:07.145Z,80.88
2018-04-14T22:07:33.970Z,79.55
2018-04-14T22:10:00.604Z,81.08
2018-04-14T22:12:28.287Z,80.64
2018-04-14T22:14:54.830Z,81.19
2018-04-14T22:17:21.233Z,81.21
2018-04-14T22:19:47.829Z,81.42
2018-04-14T22:22:15.456Z,81.88
2018-04-14T22:24:41.901Z,81.33
2018-04-14T22:27:08.455Z,79.73
2018-04-14T22:29:34.919Z,81.14
2018-04-14T22:32:01.435Z,79.57
2018-04-14T22:34:27.927Z,80.28
2018-04-14T22:36:54.344Z,81.45
2018-04-14T22:39:20.951Z,80.92
2018-04-14T22:41:47.533Z,81.88
2018-04-14T22:44:13.939Z,81.42
2018-04-14T22:46:40.444Z,81.79
2018-04-14T22:49:06.837Z,82.58
2018-04-14T22:51:33.264Z,82.77
2018-04-14T22:53:59.627Z,81.79
2018-04-14T22:56:26.023Z,80.98
2018-04-14T22:58:52.420Z,83.37
2018-04-14T23:01:18.906Z,82.81
2018-04-14T23:03:45.365Z,81.64
2018-04-14T23:06:11.780Z,82.55
2018-04-14T23:08:38.224Z,83.63
2018-04-14T23:11:04.825Z,82.57
2018-04-14T23:13:31.209Z,83.64
2018-04-14T23:15:57.549Z,82.45
2018-04-14T23:18:23.961Z,83.38
2018-04-14T23:20:50.513Z,84.36
2018-04-14T23:23:16.974Z,84.21
2018-04-14T23:25:43.467Z,85.24
2018-04-14T23:28:09.818Z,85.54
2018-04-14T23:30:36.144Z,85.43
2018-04-14T23:33:02.614Z,85.02
2018-04-14T23:35:28.928Z,86.32
2018-04-14T23:37:55.296Z,85.58
2018-04-14T23:40:21.751Z,86.58
2018-04-14T23:42:48.112Z,85.77
2018-04-14T23:45:14.569Z,85.89
2018-04-14T23:47:40.980Z,83.86
2018-04-14T23:50:07.483Z,83.08
2018-04-14T23:52:33.856Z,84.16
2018-04-14T23:55:00.314Z,83.98
2018-04-14T23:57:26.681Z,83.23
2018-04-14T23:59:53.109Z,82.02
